sensor_id;sensor_type;location;lat;lon;timestamp;temperature;humidity
6178;DHT22;3122;48.208;11.174;2023-02-28T00:00:36;-2.20;1.00
6178;DHT22;3122;48.208;11.174;2023-02-28T00:05:36;-2.30;1.00
6178;DHT22;3122;48.208;11.174;2023-02-28T00:10:37;-2.30;1.00
6178;DHT22;3122;48.208;11.174;2023-02-28T00:15:38;-2.40;1.00
6178;DHT22;3122;48.208;11.174;2023-02-28T00:20:39;-2.30;1.00
6178;DHT22;3122;48.208;11.174;2023-02-28T00:25:39;-2.30;1.00
6178;DHT22;3122;48.208;11.174;2023-02-28T00:30:40;-2.40;1.00
6178;DHT22;3122;48.208;11.174;2023-02-28T00:35:41;-2.40;1.00
6178;DHT22;3122;48.208;11.174;2023-02-28T00:40:41;-2.50;1.00
6178;DHT22;3122;48.208;11.174;2023-02-28T00:45:42;-2.50;1.00
6178;DHT22;3122;48.208;11.174;2023-02-28T00:50:43;-2.60;1.00
6178;DHT22;3122;48.208;11.174;2023-02-28T00:55:44;-2.70;1.00
6178;DHT22;3122;48.208;11.174;2023-02-28T01:00:44;-2.70;1.00
6178;DHT22;3122;48.208;11.174;2023-02-28T01:05:49;-2.70;1.00
6178;DHT22;3122;48.208;11.174;2023-02-28T01:10:49;-2.70;1.00
6178;DHT22;3122;48.208;11.174;2023-02-28T01:15:52;-2.70;1.00
6178;DHT22;3122;48.208;11.174;2023-02-28T01:20:53;-2.80;1.00
6178;DHT22;3122;48.208;11.174;2023-02-28T01:25:53;-2.80;1.00
6178;DHT22;3122;48.208;11.174;2023-02-28T01:30:54;-2.80;1.00
6178;DHT22;3122;48.208;11.174;2023-02-28T01:35:59;-2.90;1.00
6178;DHT22;3122;48.208;11.174;2023-02-28T01:41:00;-3.00;1.00
6178;DHT22;3122;48.208;11.174;2023-02-28T01:46:00;-3.00;1.00
6178;DHT22;3122;48.208;11.174;2023-02-28T01:51:05;-3.10;1.00
6178;DHT22;3122;48.208;11.174;2023-02-28T01:56:09;-3.10;1.00
6178;DHT22;3122;48.208;11.174;2023-02-28T02:01:11;-3.10;1.00
6178;DHT22;3122;48.208;11.174;2023-02-28T02:06:35;-3.20;1.00
6178;DHT22;3122;48.208;11.174;2023-02-28T02:11:39;-3.10;1.00
6178;DHT22;3122;48.208;11.174;2023-02-28T02:17:12;-3.20;1.00
6178;DHT22;3122;48.208;11.174;2023-02-28T02:27:48;-3.30;1.00
6178;DHT22;3122;48.208;11.174;2023-02-28T02:33:10;-3.30;1.00
6178;DHT22;3122;48.208;11.174;2023-02-28T02:49:05;-3.30;1.00
6178;DHT22;3122;48.208;11.174;2023-02-28T02:54:17;-3.40;1.00
6178;DHT22;3122;48.208;11.174;2023-02-28T02:59:21;-3.50;1.00
6178;DHT22;3122;48.208;11.174;2023-02-28T03:04:26;-3.50;1.00
6178;DHT22;3122;48.208;11.174;2023-02-28T03:09:28;-3.50;1.00
6178;DHT22;3122;48.208;11.174;2023-02-28T03:25:09;-3.50;1.00
6178;DHT22;3122;48.208;11.174;2023-02-28T03:30:33;-3.50;1.00
6178;DHT22;3122;48.208;11.174;2023-02-28T03:35:42;-3.50;1.00
6178;DHT22;3122;48.208;11.174;2023-02-28T03:40:54;-3.50;1.00
6178;DHT22;3122;48.208;11.174;2023-02-28T03:45:58;-3.50;1.00
6178;DHT22;3122;48.208;11.174;2023-02-28T03:51:00;-3.50;1.00
6178;DHT22;3122;48.208;11.174;2023-02-28T03:56:27;-3.50;1.00
6178;DHT22;3122;48.208;11.174;2023-02-28T04:01:39;-3.50;1.00
6178;DHT22;3122;48.208;11.174;2023-02-28T04:06:42;-3.40;1.00
6178;DHT22;3122;48.208;11.174;2023-02-28T04:11:45;-3.30;1.00
6178;DHT22;3122;48.208;11.174;2023-02-28T04:16:46;-3.30;1.00
6178;DHT22;3122;48.208;11.174;2023-02-28T04:21:49;-3.30;1.00
6178;DHT22;3122;48.208;11.174;2023-02-28T04:26:53;-3.20;1.00
6178;DHT22;3122;48.208;11.174;2023-02-28T04:31:55;-3.10;1.00
6178;DHT22;3122;48.208;11.174;2023-02-28T04:36:58;-3.10;1.00
6178;DHT22;3122;48.208;11.174;2023-02-28T04:42:00;-3.00;1.00
6178;DHT22;3122;48.208;11.174;2023-02-28T04:47:01;-3.00;1.00
6178;DHT22;3122;48.208;11.174;2023-02-28T04:52:01;-3.00;1.00
6178;DHT22;3122;48.208;11.174;2023-02-28T04:57:02;-3.10;1.00
6178;DHT22;3122;48.208;11.174;2023-02-28T05:02:02;-3.00;1.00
6178;DHT22;3122;48.208;11.174;2023-02-28T05:07:06;-2.90;1.00
6178;DHT22;3122;48.208;11.174;2023-02-28T05:12:08;-2.90;1.00
6178;DHT22;3122;48.208;11.174;2023-02-28T05:17:09;-2.90;1.00
6178;DHT22;3122;48.208;11.174;2023-02-28T05:22:14;-2.80;1.00
6178;DHT22;3122;48.208;11.174;2023-02-28T05:27:17;-2.90;1.00
6178;DHT22;3122;48.208;11.174;2023-02-28T05:32:17;-2.70;1.00
6178;DHT22;3122;48.208;11.174;2023-02-28T05:37:18;-2.80;1.00
6178;DHT22;3122;48.208;11.174;2023-02-28T05:42:18;-2.80;1.00
6178;DHT22;3122;48.208;11.174;2023-02-28T05:47:19;-2.70;1.00
6178;DHT22;3122;48.208;11.174;2023-02-28T05:52:19;-2.70;1.00
6178;DHT22;3122;48.208;11.174;2023-02-28T05:57:21;-2.80;1.00
6178;DHT22;3122;48.208;11.174;2023-02-28T06:02:22;-2.80;1.00
6178;DHT22;3122;48.208;11.174;2023-02-28T06:07:23;-2.80;1.00
6178;DHT22;3122;48.208;11.174;2023-02-28T06:12:23;-2.80;1.00
6178;DHT22;3122;48.208;11.174;2023-02-28T06:17:24;-2.70;1.00
6178;DHT22;3122;48.208;11.174;2023-02-28T06:22:24;-2.70;1.00
6178;DHT22;3122;48.208;11.174;2023-02-28T06:27:25;-2.60;1.00
6178;DHT22;3122;48.208;11.174;2023-02-28T06:32:25;-2.70;1.00
6178;DHT22;3122;48.208;11.174;2023-02-28T06:37:26;-2.70;1.00
6178;DHT22;3122;48.208;11.174;2023-02-28T06:42:27;-2.70;1.00
6178;DHT22;3122;48.208;11.174;2023-02-28T06:47:30;-2.60;1.00
6178;DHT22;3122;48.208;11.174;2023-02-28T06:52:31;-2.60;1.00
6178;DHT22;3122;48.208;11.174;2023-02-28T06:57:33;-2.60;1.00
6178;DHT22;3122;48.208;11.174;2023-02-28T07:02:36;-2.70;1.00
6178;DHT22;3122;48.208;11.174;2023-02-28T07:07:36;-2.70;1.00
6178;DHT22;3122;48.208;11.174;2023-02-28T07:12:38;-2.70;1.00
6178;DHT22;3122;48.208;11.174;2023-02-28T07:17:39;-2.70;1.00
6178;DHT22;3122;48.208;11.174;2023-02-28T07:22:40;-2.60;1.00
6178;DHT22;3122;48.208;11.174;2023-02-28T07:27:40;-2.60;1.00
6178;DHT22;3122;48.208;11.174;2023-02-28T07:32:41;-2.60;1.00
6178;DHT22;3122;48.208;11.174;2023-02-28T07:37:42;-2.60;1.00
6178;DHT22;3122;48.208;11.174;2023-02-28T07:42:43;-2.50;1.00
6178;DHT22;3122;48.208;11.174;2023-02-28T07:47:44;-2.60;1.00
6178;DHT22;3122;48.208;11.174;2023-02-28T07:52:44;-2.50;1.00
6178;DHT22;3122;48.208;11.174;2023-02-28T07:57:45;-2.60;1.00
6178;DHT22;3122;48.208;11.174;2023-02-28T08:02:45;-2.50;1.00
6178;DHT22;3122;48.208;11.174;2023-02-28T08:07:46;-2.40;1.00
6178;DHT22;3122;48.208;11.174;2023-02-28T08:12:49;-2.40;1.00
6178;DHT22;3122;48.208;11.174;2023-02-28T08:17:49;-2.30;1.00
6178;DHT22;3122;48.208;11.174;2023-02-28T08:22:50;-2.30;1.00
6178;DHT22;3122;48.208;11.174;2023-02-28T08:27:52;-2.30;1.00
6178;DHT22;3122;48.208;11.174;2023-02-28T08:32:53;-2.40;1.00
6178;DHT22;3122;48.208;11.174;2023-02-28T08:37:54;-2.40;1.00
6178;DHT22;3122;48.208;11.174;2023-02-28T08:42:55;-2.30;1.00
6178;DHT22;3122;48.208;11.174;2023-02-28T08:47:58;-2.20;1.00
6178;DHT22;3122;48.208;11.174;2023-02-28T08:52:58;-2.20;1.00
6178;DHT22;3122;48.208;11.174;2023-02-28T08:58:00;-2.10;1.00
6178;DHT22;3122;48.208;11.174;2023-02-28T09:03:01;-2.10;1.00
6178;DHT22;3122;48.208;11.174;2023-02-28T09:08:02;-2.10;1.00
6178;DHT22;3122;48.208;11.174;2023-02-28T09:13:03;-2.10;1.00
6178;DHT22;3122;48.208;11.174;2023-02-28T09:18:03;-1.90;1.00
6178;DHT22;3122;48.208;11.174;2023-02-28T09:23:04;-2.00;1.00
6178;DHT22;3122;48.208;11.174;2023-02-28T09:28:05;-1.90;1.00
6178;DHT22;3122;48.208;11.174;2023-02-28T09:33:05;-1.80;1.00
6178;DHT22;3122;48.208;11.174;2023-02-28T09:38:06;-1.60;1.00
6178;DHT22;3122;48.208;11.174;2023-02-28T09:43:11;-1.50;1.00
6178;DHT22;3122;48.208;11.174;2023-02-28T09:48:17;-1.40;1.00
6178;DHT22;3122;48.208;11.174;2023-02-28T09:53:31;-1.30;1.00
6178;DHT22;3122;48.208;11.174;2023-02-28T09:58:44;-1.20;1.00
6178;DHT22;3122;48.208;11.174;2023-02-28T10:04:11;-1.20;1.00
6178;DHT22;3122;48.208;11.174;2023-02-28T10:09:29;-1.20;1.00
6178;DHT22;3122;48.208;11.174;2023-02-28T10:14:33;-1.10;1.00
6178;DHT22;3122;48.208;11.174;2023-02-28T10:19:40;-0.90;1.00
6178;DHT22;3122;48.208;11.174;2023-02-28T10:24:48;-0.80;1.00
6178;DHT22;3122;48.208;11.174;2023-02-28T10:29:54;-0.70;1.00
6178;DHT22;3122;48.208;11.174;2023-02-28T10:35:09;-0.60;1.00
6178;DHT22;3122;48.208;11.174;2023-02-28T10:45:20;-0.20;1.00
6178;DHT22;3122;48.208;11.174;2023-02-28T10:55:42;-0.20;1.00
6178;DHT22;3122;48.208;11.174;2023-02-28T11:00:43;-0.30;1.00
6178;DHT22;3122;48.208;11.174;2023-02-28T11:05:44;-0.50;1.00
6178;DHT22;3122;48.208;11.174;2023-02-28T11:10:57;-0.30;1.00
6178;DHT22;3122;48.208;11.174;2023-02-28T11:16:00;-0.30;1.00
6178;DHT22;3122;48.208;11.174;2023-02-28T11:21:03;-0.20;1.00
6178;DHT22;3122;48.208;11.174;2023-02-28T11:26:04;-0.20;1.00
6178;DHT22;3122;48.208;11.174;2023-02-28T11:36:24;0.50;1.00
6178;DHT22;3122;48.208;11.174;2023-02-28T11:41:30;0.80;1.00
6178;DHT22;3122;48.208;11.174;2023-02-28T11:51:49;0.90;1.00
6178;DHT22;3122;48.208;11.174;2023-02-28T11:57:18;0.90;1.00
6178;DHT22;3122;48.208;11.174;2023-02-28T12:02:29;0.90;1.00
6178;DHT22;3122;48.208;11.174;2023-02-28T12:13:09;0.90;1.00
6178;DHT22;3122;48.208;11.174;2023-02-28T12:28:35;1.20;1.00
6178;DHT22;3122;48.208;11.174;2023-02-28T12:33:46;1.20;1.00
6178;DHT22;3122;48.208;11.174;2023-02-28T12:39:16;1.40;1.00
6178;DHT22;3122;48.208;11.174;2023-02-28T12:44:57;1.30;1.00
6178;DHT22;3122;48.208;11.174;2023-02-28T12:50:07;1.20;1.00
6178;DHT22;3122;48.208;11.174;2023-02-28T12:55:20;1.30;1.00
6178;DHT22;3122;48.208;11.174;2023-02-28T13:00:25;1.50;1.00
6178;DHT22;3122;48.208;11.174;2023-02-28T13:10:51;1.70;1.00
6178;DHT22;3122;48.208;11.174;2023-02-28T13:16:08;1.80;1.00
6178;DHT22;3122;48.208;11.174;2023-02-28T13:21:27;2.10;1.00
6178;DHT22;3122;48.208;11.174;2023-02-28T13:48:02;2.50;1.00
6178;DHT22;3122;48.208;11.174;2023-02-28T13:58:35;2.50;1.00
6178;DHT22;3122;48.208;11.174;2023-02-28T14:13:59;2.30;1.00
6178;DHT22;3122;48.208;11.174;2023-02-28T14:19:03;2.30;1.00
6178;DHT22;3122;48.208;11.174;2023-02-28T14:40:33;2.10;1.00
6178;DHT22;3122;48.208;11.174;2023-02-28T14:45:35;2.10;1.00
6178;DHT22;3122;48.208;11.174;2023-02-28T14:50:37;2.10;1.00
6178;DHT22;3122;48.208;11.174;2023-02-28T14:55:44;2.20;1.00
6178;DHT22;3122;48.208;11.174;2023-02-28T15:00:50;2.10;1.00
6178;DHT22;3122;48.208;11.174;2023-02-28T15:05:58;2.10;1.00
6178;DHT22;3122;48.208;11.174;2023-02-28T15:11:05;2.20;1.00
6178;DHT22;3122;48.208;11.174;2023-02-28T15:16:19;2.10;1.00
6178;DHT22;3122;48.208;11.174;2023-02-28T15:21:22;2.00;1.00
6178;DHT22;3122;48.208;11.174;2023-02-28T15:26:27;2.10;1.00
6178;DHT22;3122;48.208;11.174;2023-02-28T15:31:34;2.00;1.00
6178;DHT22;3122;48.208;11.174;2023-02-28T15:36:36;2.00;1.00
6178;DHT22;3122;48.208;11.174;2023-02-28T15:41:38;2.00;1.00
6178;DHT22;3122;48.208;11.174;2023-02-28T15:46:53;1.90;1.00
6178;DHT22;3122;48.208;11.174;2023-02-28T15:51:58;1.70;1.00
6178;DHT22;3122;48.208;11.174;2023-02-28T15:57:06;1.60;1.00
6178;DHT22;3122;48.208;11.174;2023-02-28T16:02:17;1.60;1.00
6178;DHT22;3122;48.208;11.174;2023-02-28T16:07:21;1.60;1.00
6178;DHT22;3122;48.208;11.174;2023-02-28T16:12:26;1.50;1.00
6178;DHT22;3122;48.208;11.174;2023-02-28T16:17:29;1.40;1.00
6178;DHT22;3122;48.208;11.174;2023-02-28T16:22:31;1.40;1.00
6178;DHT22;3122;48.208;11.174;2023-02-28T16:27:35;1.20;1.00
6178;DHT22;3122;48.208;11.174;2023-02-28T16:32:36;1.20;1.00
6178;DHT22;3122;48.208;11.174;2023-02-28T16:37:37;1.10;1.00
6178;DHT22;3122;48.208;11.174;2023-02-28T16:42:37;1.00;1.00
6178;DHT22;3122;48.208;11.174;2023-02-28T16:47:38;1.00;1.00
6178;DHT22;3122;48.208;11.174;2023-02-28T16:52:39;0.90;1.00
6178;DHT22;3122;48.208;11.174;2023-02-28T16:57:40;0.80;1.00
6178;DHT22;3122;48.208;11.174;2023-02-28T17:02:40;0.70;1.00
6178;DHT22;3122;48.208;11.174;2023-02-28T17:07:42;0.70;1.00
6178;DHT22;3122;48.208;11.174;2023-02-28T17:12:43;0.60;1.00
6178;DHT22;3122;48.208;11.174;2023-02-28T17:17:44;0.50;1.00
6178;DHT22;3122;48.208;11.174;2023-02-28T17:22:45;0.50;1.00
6178;DHT22;3122;48.208;11.174;2023-02-28T17:27:47;0.40;1.00
6178;DHT22;3122;48.208;11.174;2023-02-28T17:32:47;0.30;1.00
6178;DHT22;3122;48.208;11.174;2023-02-28T17:37:48;0.30;1.00
6178;DHT22;3122;48.208;11.174;2023-02-28T17:42:49;0.30;1.00
6178;DHT22;3122;48.208;11.174;2023-02-28T17:47:52;0.20;1.00
6178;DHT22;3122;48.208;11.174;2023-02-28T17:52:52;0.20;1.00
6178;DHT22;3122;48.208;11.174;2023-02-28T17:57:53;0.20;1.00
6178;DHT22;3122;48.208;11.174;2023-02-28T18:02:53;0.20;1.00
6178;DHT22;3122;48.208;11.174;2023-02-28T18:07:54;0.10;1.00
6178;DHT22;3122;48.208;11.174;2023-02-28T18:12:56;0.10;1.00
6178;DHT22;3122;48.208;11.174;2023-02-28T18:17:56;0.20;1.00
6178;DHT22;3122;48.208;11.174;2023-02-28T18:22:57;0.30;1.00
6178;DHT22;3122;48.208;11.174;2023-02-28T18:27:57;0.30;1.00
6178;DHT22;3122;48.208;11.174;2023-02-28T18:32:59;0.30;1.00
6178;DHT22;3122;48.208;11.174;2023-02-28T18:38:02;0.30;1.00
6178;DHT22;3122;48.208;11.174;2023-02-28T18:43:03;0.30;1.00
6178;DHT22;3122;48.208;11.174;2023-02-28T18:48:05;0.30;1.00
6178;DHT22;3122;48.208;11.174;2023-02-28T18:53:05;0.30;1.00
6178;DHT22;3122;48.208;11.174;2023-02-28T18:58:06;0.30;1.00
6178;DHT22;3122;48.208;11.174;2023-02-28T19:03:06;0.30;1.00
6178;DHT22;3122;48.208;11.174;2023-02-28T19:08:07;0.30;1.00
6178;DHT22;3122;48.208;11.174;2023-02-28T19:13:08;0.30;1.00
6178;DHT22;3122;48.208;11.174;2023-02-28T19:18:08;0.30;1.00
6178;DHT22;3122;48.208;11.174;2023-02-28T19:23:09;0.40;1.00
6178;DHT22;3122;48.208;11.174;2023-02-28T19:28:12;0.40;1.00
6178;DHT22;3122;48.208;11.174;2023-02-28T19:33:14;0.40;1.00
6178;DHT22;3122;48.208;11.174;2023-02-28T19:38:15;0.40;1.00
6178;DHT22;3122;48.208;11.174;2023-02-28T19:43:16;0.30;1.00
6178;DHT22;3122;48.208;11.174;2023-02-28T19:48:16;0.40;1.00
6178;DHT22;3122;48.208;11.174;2023-02-28T19:53:17;0.40;1.00
6178;DHT22;3122;48.208;11.174;2023-02-28T19:58:18;0.40;1.00
6178;DHT22;3122;48.208;11.174;2023-02-28T20:03:18;0.40;1.00
6178;DHT22;3122;48.208;11.174;2023-02-28T20:08:19;0.40;1.00
6178;DHT22;3122;48.208;11.174;2023-02-28T20:13:20;0.30;1.00
6178;DHT22;3122;48.208;11.174;2023-02-28T20:18:20;0.40;1.00
6178;DHT22;3122;48.208;11.174;2023-02-28T20:23:21;0.30;1.00
6178;DHT22;3122;48.208;11.174;2023-02-28T20:28:22;0.30;1.00
6178;DHT22;3122;48.208;11.174;2023-02-28T20:33:23;0.30;1.00
6178;DHT22;3122;48.208;11.174;2023-02-28T20:38:23;0.30;1.00
6178;DHT22;3122;48.208;11.174;2023-02-28T20:43:24;0.30;1.00
6178;DHT22;3122;48.208;11.174;2023-02-28T20:48:24;0.30;1.00
6178;DHT22;3122;48.208;11.174;2023-02-28T20:53:26;0.30;1.00
6178;DHT22;3122;48.208;11.174;2023-02-28T20:58:29;0.30;1.00
6178;DHT22;3122;48.208;11.174;2023-02-28T21:03:30;0.30;1.00
6178;DHT22;3122;48.208;11.174;2023-02-28T21:08:33;0.30;1.00
6178;DHT22;3122;48.208;11.174;2023-02-28T21:13:34;0.30;1.00
6178;DHT22;3122;48.208;11.174;2023-02-28T21:18:36;0.30;1.00
6178;DHT22;3122;48.208;11.174;2023-02-28T21:23:37;0.30;1.00
6178;DHT22;3122;48.208;11.174;2023-02-28T21:28:38;0.30;1.00
6178;DHT22;3122;48.208;11.174;2023-02-28T21:33:43;0.30;1.00
6178;DHT22;3122;48.208;11.174;2023-02-28T21:38:45;0.30;1.00
6178;DHT22;3122;48.208;11.174;2023-02-28T21:43:47;0.30;1.00
6178;DHT22;3122;48.208;11.174;2023-02-28T21:48:48;0.30;1.00
6178;DHT22;3122;48.208;11.174;2023-02-28T21:53:50;0.30;1.00
6178;DHT22;3122;48.208;11.174;2023-02-28T21:58:51;0.20;1.00
6178;DHT22;3122;48.208;11.174;2023-02-28T22:04:00;0.20;1.00
6178;DHT22;3122;48.208;11.174;2023-02-28T22:09:04;0.20;1.00
6178;DHT22;3122;48.208;11.174;2023-02-28T22:14:06;0.20;1.00
6178;DHT22;3122;48.208;11.174;2023-02-28T22:19:08;0.20;1.00
6178;DHT22;3122;48.208;11.174;2023-02-28T22:24:10;0.20;1.00
6178;DHT22;3122;48.208;11.174;2023-02-28T22:29:10;0.20;1.00
6178;DHT22;3122;48.208;11.174;2023-02-28T22:34:11;0.20;1.00
6178;DHT22;3122;48.208;11.174;2023-02-28T22:39:12;0.20;1.00
6178;DHT22;3122;48.208;11.174;2023-02-28T22:44:13;0.20;1.00
6178;DHT22;3122;48.208;11.174;2023-02-28T22:49:13;0.20;1.00
6178;DHT22;3122;48.208;11.174;2023-02-28T22:54:14;0.20;1.00
6178;DHT22;3122;48.208;11.174;2023-02-28T22:59:14;0.20;1.00
6178;DHT22;3122;48.208;11.174;2023-02-28T23:04:15;0.20;1.00
6178;DHT22;3122;48.208;11.174;2023-02-28T23:09:17;0.20;1.00
6178;DHT22;3122;48.208;11.174;2023-02-28T23:14:19;0.10;1.00
6178;DHT22;3122;48.208;11.174;2023-02-28T23:19:21;0.20;1.00
6178;DHT22;3122;48.208;11.174;2023-02-28T23:24:24;0.20;1.00
6178;DHT22;3122;48.208;11.174;2023-02-28T23:29:26;0.10;1.00
6178;DHT22;3122;48.208;11.174;2023-02-28T23:34:27;0.10;1.00
6178;DHT22;3122;48.208;11.174;2023-02-28T23:39:31;0.10;1.00
6178;DHT22;3122;48.208;11.174;2023-02-28T23:44:31;0.10;1.00
6178;DHT22;3122;48.208;11.174;2023-02-28T23:49:32;0.20;1.00
6178;DHT22;3122;48.208;11.174;2023-02-28T23:54:33;0.20;1.00
6178;DHT22;3122;48.208;11.174;2023-02-28T23:59:34;0.20;1.00
